createdAt,value
2022-08-26T00:00:31.869Z,19.00
2022-08-26T00:03:01.930Z,18.90
2022-08-26T00:05:30.975Z,18.80
2022-08-26T00:07:59.270Z,18.80
2022-08-26T00:10:28.927Z,18.80
2022-08-26T00:12:56.865Z,18.80
2022-08-26T00:15:26.121Z,18.80
2022-08-26T00:17:55.640Z,18.80
2022-08-26T00:20:28.160Z,18.90
2022-08-26T00:22:56.401Z,18.90
2022-08-26T00:25:24.656Z,18.90
2022-08-26T00:27:54.295Z,18.80
2022-08-26T00:30:26.990Z,18.70
2022-08-26T00:32:55.694Z,18.70
2022-08-26T00:35:25.040Z,18.60
2022-08-26T00:37:56.514Z,18.60
2022-08-26T00:40:28.466Z,18.60
2022-08-26T00:42:57.824Z,18.60
2022-08-26T00:45:25.964Z,18.60
2022-08-26T00:47:57.851Z,18.60
2022-08-26T00:50:30.132Z,18.60
2022-08-26T00:53:00.115Z,18.60
2022-08-26T00:55:37.863Z,18.50
2022-08-26T00:58:08.827Z,18.40
2022-08-26T01:00:36.884Z,18.30
2022-08-26T01:03:05.437Z,18.30
2022-08-26T01:05:35.647Z,18.10
2022-08-26T01:08:03.927Z,18.10
2022-08-26T01:10:32.514Z,18.20
2022-08-26T01:13:06.020Z,18.20
2022-08-26T01:15:43.864Z,18.30
2022-08-26T01:18:13.779Z,18.30
2022-08-26T01:20:49.322Z,18.40
2022-08-26T01:23:18.820Z,18.30
2022-08-26T01:25:55.139Z,18.30
2022-08-26T01:28:28.071Z,18.20
2022-08-26T01:30:58.722Z,18.20
2022-08-26T01:33:30.651Z,18.10
2022-08-26T01:36:09.233Z,18.10
2022-08-26T01:38:38.670Z,18.00
2022-08-26T01:41:19.574Z,17.90
2022-08-26T01:43:51.586Z,17.90
2022-08-26T01:46:20.725Z,17.90
2022-08-26T01:48:50.063Z,17.90
2022-08-26T01:51:25.178Z,17.90
2022-08-26T01:53:54.549Z,17.80
2022-08-26T01:56:24.124Z,17.80
2022-08-26T01:58:54.780Z,17.80
2022-08-26T02:01:28.976Z,17.70
2022-08-26T02:04:04.189Z,17.60
2022-08-26T02:06:32.760Z,17.60
2022-08-26T02:09:06.010Z,17.60
2022-08-26T02:11:34.354Z,17.50
2022-08-26T02:14:10.830Z,17.50
2022-08-26T02:16:42.915Z,17.50
2022-08-26T02:19:17.081Z,17.40
2022-08-26T02:21:51.186Z,17.40
2022-08-26T02:24:24.495Z,17.40
2022-08-26T02:26:55.848Z,17.40
2022-08-26T02:29:26.973Z,17.40
2022-08-26T02:31:56.367Z,17.40
2022-08-26T02:34:31.163Z,17.40
2022-08-26T02:37:01.199Z,17.40
2022-08-26T02:39:30.983Z,17.40
2022-08-26T02:42:00.139Z,17.40
2022-08-26T02:44:28.492Z,17.40
2022-08-26T02:46:56.731Z,17.40
2022-08-26T02:49:26.242Z,17.40
2022-08-26T02:51:54.461Z,17.40
2022-08-26T02:54:22.929Z,17.40
2022-08-26T02:56:52.541Z,17.40
2022-08-26T02:59:20.453Z,17.30
2022-08-26T03:01:52.798Z,17.30
2022-08-26T03:04:25.803Z,17.30
2022-08-26T03:06:55.407Z,17.30
2022-08-26T03:09:23.856Z,17.20
2022-08-26T03:11:55.269Z,17.20
2022-08-26T03:14:24.317Z,17.10
2022-08-26T03:16:53.985Z,17.00
2022-08-26T03:19:22.953Z,16.90
2022-08-26T03:21:50.973Z,16.80
2022-08-26T03:24:20.802Z,16.80
2022-08-26T03:26:52.062Z,16.80
2022-08-26T03:29:40.203Z,16.90
2022-08-26T03:32:08.308Z,16.90
2022-08-26T03:34:37.180Z,16.90
2022-08-26T03:37:06.712Z,16.80
2022-08-26T03:39:35.043Z,16.70
2022-08-26T03:42:02.977Z,16.70
2022-08-26T03:44:32.236Z,16.70
2022-08-26T03:47:00.579Z,16.70
2022-08-26T03:49:28.967Z,16.70
2022-08-26T03:51:57.070Z,16.80
2022-08-26T03:54:24.996Z,16.80
2022-08-26T03:56:52.966Z,16.70
2022-08-26T03:59:21.280Z,16.70
2022-08-26T04:01:50.606Z,16.60
2022-08-26T04:04:18.739Z,16.70
2022-08-26T04:06:51.116Z,16.60
2022-08-26T04:09:20.362Z,16.60
2022-08-26T04:11:50.585Z,16.60
2022-08-26T04:14:21.575Z,16.50
2022-08-26T04:16:51.222Z,16.50
2022-08-26T04:19:21.192Z,16.50
2022-08-26T04:21:53.158Z,16.50
2022-08-26T04:24:23.247Z,16.50
2022-08-26T04:26:51.257Z,16.50
2022-08-26T04:29:21.649Z,16.40
2022-08-26T04:31:55.220Z,16.40
2022-08-26T04:34:25.027Z,16.40
2022-08-26T04:36:57.617Z,16.40
2022-08-26T04:39:25.719Z,16.40
2022-08-26T04:41:56.003Z,16.40
2022-08-26T04:44:27.502Z,16.30
2022-08-26T04:46:58.378Z,16.30
2022-08-26T04:49:27.490Z,16.30
2022-08-26T04:51:55.933Z,16.40
2022-08-26T04:54:25.186Z,16.50
2022-08-26T04:56:53.840Z,16.60
2022-08-26T04:59:29.972Z,16.70
2022-08-26T05:02:01.534Z,16.70
2022-08-26T05:04:30.218Z,16.80
2022-08-26T05:07:02.435Z,17.00
2022-08-26T05:09:31.072Z,17.20
2022-08-26T05:11:59.042Z,17.40
2022-08-26T05:14:27.490Z,17.50
2022-08-26T05:16:55.679Z,17.60
2022-08-26T05:19:25.761Z,17.70
2022-08-26T05:21:55.983Z,17.80
2022-08-26T05:24:24.293Z,17.70
2022-08-26T05:26:52.270Z,17.70
2022-08-26T05:29:20.199Z,17.60
2022-08-26T05:31:51.041Z,17.50
2022-08-26T05:34:20.713Z,17.50
2022-08-26T05:36:50.499Z,17.40
2022-08-26T05:39:18.494Z,17.50
2022-08-26T05:41:46.516Z,17.50
2022-08-26T05:44:18.688Z,17.50
2022-08-26T05:46:47.114Z,17.50
2022-08-26T05:49:15.830Z,17.60
2022-08-26T05:51:46.308Z,17.70
2022-08-26T05:54:22.121Z,17.80
2022-08-26T05:56:51.031Z,17.90
2022-08-26T05:59:24.080Z,18.20
2022-08-26T06:01:53.212Z,18.60
2022-08-26T06:04:21.513Z,19.00
2022-08-26T06:06:50.807Z,19.50
2022-08-26T06:11:58.802Z,20.40
2022-08-26T06:14:31.017Z,20.70
2022-08-26T06:19:56.143Z,21.40
2022-08-26T06:22:46.736Z,21.80
2022-08-26T06:25:33.166Z,22.20
2022-08-26T06:28:02.474Z,22.70
2022-08-26T06:30:32.944Z,23.00
2022-08-26T06:33:01.627Z,23.30
2022-08-26T06:35:29.735Z,23.40
2022-08-26T06:38:02.857Z,23.80
2022-08-26T06:40:36.615Z,24.20
2022-08-26T06:43:05.986Z,24.50
2022-08-26T06:45:37.081Z,24.80
2022-08-26T06:48:05.513Z,25.10
2022-08-26T06:50:35.042Z,25.30
2022-08-26T06:53:03.467Z,25.50
2022-08-26T06:55:32.516Z,25.80
2022-08-26T06:58:01.990Z,25.90
2022-08-26T07:00:34.194Z,26.20
2022-08-26T07:03:02.311Z,26.60
2022-08-26T07:05:34.082Z,26.90
2022-08-26T07:08:03.706Z,27.20
2022-08-26T07:10:31.785Z,27.50
2022-08-26T07:12:59.783Z,27.70
2022-08-26T07:15:32.252Z,27.90
2022-08-26T07:18:02.619Z,28.20
2022-08-26T07:20:33.555Z,28.60
2022-08-26T07:23:01.519Z,28.90
2022-08-26T07:25:30.077Z,29.10
2022-08-26T07:27:58.080Z,29.30
2022-08-26T07:30:26.364Z,29.50
2022-08-26T07:32:57.396Z,29.60
2022-08-26T07:35:30.659Z,29.80
2022-08-26T07:37:58.649Z,30.00
2022-08-26T07:40:26.824Z,30.20
2022-08-26T07:42:54.878Z,30.30
2022-08-26T07:45:23.186Z,30.60
2022-08-26T07:47:51.529Z,30.80
2022-08-26T07:50:19.723Z,31.10
2022-08-26T07:52:49.513Z,31.30
2022-08-26T07:55:18.193Z,31.60
2022-08-26T07:57:46.746Z,31.80
2022-08-26T08:00:17.051Z,32.20
2022-08-26T08:02:47.514Z,32.50
2022-08-26T08:05:19.871Z,32.70
2022-08-26T08:07:53.524Z,32.80
2022-08-26T08:11:14.449Z,33.00
2022-08-26T08:13:42.516Z,33.20
2022-08-26T08:16:13.241Z,33.40
2022-08-26T08:18:41.222Z,33.60
2022-08-26T08:21:35.068Z,33.80
2022-08-26T08:24:03.131Z,34.10
2022-08-26T08:26:32.537Z,34.30
2022-08-26T08:29:00.449Z,34.50
2022-08-26T08:34:19.784Z,34.60
2022-08-26T08:36:50.342Z,34.80
2022-08-26T08:39:21.939Z,34.90
2022-08-26T08:42:10.841Z,34.90
2022-08-26T08:44:42.718Z,34.80
2022-08-26T08:47:19.817Z,34.60
2022-08-26T08:49:48.829Z,34.60
2022-08-26T08:52:28.949Z,34.60
2022-08-26T08:54:58.132Z,34.60
2022-08-26T08:57:36.065Z,34.30
2022-08-26T09:00:11.284Z,34.00
2022-08-26T09:02:44.067Z,33.70
2022-08-26T09:05:18.256Z,33.80
2022-08-26T09:07:50.339Z,33.90
2022-08-26T09:10:36.724Z,33.70
2022-08-26T09:13:13.642Z,33.50
2022-08-26T09:15:55.221Z,33.50
2022-08-26T09:18:42.795Z,33.50
2022-08-26T09:21:16.758Z,33.40
2022-08-26T09:23:49.693Z,33.10
2022-08-26T09:26:21.405Z,32.80
2022-08-26T09:28:56.769Z,32.40
2022-08-26T09:31:27.496Z,32.00
2022-08-26T09:34:09.183Z,31.60
2022-08-26T09:36:41.361Z,31.30
2022-08-26T09:39:27.786Z,31.00
2022-08-26T09:42:11.029Z,30.80
2022-08-26T09:44:57.475Z,30.70
2022-08-26T09:47:30.094Z,30.60
2022-08-26T09:50:09.678Z,30.50
2022-08-26T09:52:42.764Z,30.50
2022-08-26T09:55:15.978Z,30.60
2022-08-26T09:57:49.650Z,30.80
2022-08-26T10:00:31.049Z,30.90
2022-08-26T10:03:01.506Z,31.00
2022-08-26T10:05:42.220Z,30.90
2022-08-26T10:08:23.133Z,30.80
2022-08-26T10:10:53.124Z,30.70
2022-08-26T10:13:28.105Z,30.70
2022-08-26T10:16:06.693Z,30.70
2022-08-26T10:18:44.600Z,30.60
2022-08-26T10:21:17.895Z,30.60
2022-08-26T10:23:50.388Z,30.50
2022-08-26T10:26:26.315Z,30.30
2022-08-26T10:29:01.289Z,30.00
2022-08-26T10:31:38.289Z,29.80
2022-08-26T10:34:09.262Z,29.50
2022-08-26T10:37:14.654Z,29.40
2022-08-26T10:39:42.786Z,29.30
2022-08-26T10:42:17.393Z,29.30
2022-08-26T10:44:49.037Z,29.40
2022-08-26T10:47:25.407Z,29.40
2022-08-26T10:50:00.001Z,29.50
2022-08-26T10:52:40.299Z,29.60
2022-08-26T10:55:17.696Z,29.70
2022-08-26T10:57:52.931Z,29.80
2022-08-26T11:00:44.008Z,29.80
2022-08-26T11:03:29.247Z,30.00
2022-08-26T11:06:21.017Z,30.30
2022-08-26T11:08:49.998Z,30.30
2022-08-26T11:11:47.960Z,30.30
2022-08-26T11:14:46.143Z,30.30
2022-08-26T11:17:51.746Z,30.40
2022-08-26T11:20:37.035Z,30.60
2022-08-26T11:23:50.733Z,30.80
2022-08-26T11:26:36.314Z,30.90
2022-08-26T11:29:13.590Z,31.20
2022-08-26T11:31:57.157Z,31.50
2022-08-26T11:34:54.098Z,31.60
2022-08-26T11:37:33.188Z,31.80
2022-08-26T11:40:04.067Z,31.70
2022-08-26T11:42:38.772Z,31.50
2022-08-26T11:45:18.428Z,31.50
2022-08-26T11:47:49.450Z,31.70
2022-08-26T11:50:20.545Z,31.70
2022-08-26T11:53:01.743Z,31.90
2022-08-26T11:55:30.955Z,31.90
2022-08-26T11:58:02.011Z,31.80
2022-08-26T12:00:38.396Z,31.60
2022-08-26T12:03:18.970Z,31.20
2022-08-26T12:05:49.403Z,30.80
2022-08-26T12:08:21.462Z,30.50
2022-08-26T12:10:50.052Z,30.30
2022-08-26T12:13:23.239Z,30.30
2022-08-26T12:15:55.836Z,30.20
2022-08-26T12:18:29.181Z,30.20
2022-08-26T12:21:01.204Z,30.10
2022-08-26T12:23:40.791Z,30.10
2022-08-26T12:26:11.899Z,30.00
2022-08-26T12:28:45.301Z,29.90
2022-08-26T12:31:22.504Z,29.90
2022-08-26T12:33:50.894Z,29.80
2022-08-26T12:36:25.569Z,29.90
2022-08-26T12:38:58.265Z,29.90
2022-08-26T12:41:44.138Z,29.90
2022-08-26T12:44:37.629Z,29.80
2022-08-26T12:47:09.273Z,29.80
2022-08-26T12:49:38.129Z,29.90
2022-08-26T12:52:08.313Z,29.80
2022-08-26T12:55:03.425Z,29.80
2022-08-26T12:57:35.108Z,29.90
2022-08-26T13:00:34.871Z,29.90
2022-08-26T13:03:03.552Z,30.00
2022-08-26T13:05:35.043Z,30.00
2022-08-26T13:08:28.534Z,30.00
2022-08-26T13:11:10.247Z,29.90
2022-08-26T13:13:38.234Z,29.80
2022-08-26T13:16:07.270Z,29.80
2022-08-26T13:18:35.256Z,29.80
2022-08-26T13:21:10.008Z,29.70
2022-08-26T13:23:42.341Z,29.80
2022-08-26T13:26:11.922Z,29.80
2022-08-26T13:28:39.972Z,29.90
2022-08-26T13:31:07.986Z,29.90
2022-08-26T13:33:36.000Z,29.80
2022-08-26T13:36:05.793Z,29.90
2022-08-26T13:38:34.786Z,29.90
2022-08-26T13:41:04.755Z,29.90
2022-08-26T13:43:34.470Z,29.90
2022-08-26T13:46:02.851Z,30.00
2022-08-26T13:48:31.384Z,30.00
2022-08-26T13:50:59.361Z,30.00
2022-08-26T13:53:29.151Z,30.10
2022-08-26T13:55:57.212Z,30.10
2022-08-26T13:58:25.490Z,30.00
2022-08-26T14:00:54.997Z,30.00
2022-08-26T14:03:24.543Z,30.10
2022-08-26T14:05:53.349Z,30.10
2022-08-26T14:08:21.576Z,30.10
2022-08-26T14:10:50.268Z,30.10
2022-08-26T14:13:19.358Z,30.10
2022-08-26T14:15:47.963Z,30.10
2022-08-26T14:18:22.126Z,30.10
2022-08-26T14:20:52.049Z,30.00
2022-08-26T14:23:22.620Z,29.90
2022-08-26T14:25:50.777Z,29.80
2022-08-26T14:28:18.810Z,29.50
2022-08-26T14:30:53.484Z,29.30
2022-08-26T14:33:26.759Z,29.20
2022-08-26T14:36:14.665Z,29.10
2022-08-26T14:38:42.605Z,29.00
2022-08-26T14:41:11.130Z,28.90
2022-08-26T14:43:49.580Z,28.80
2022-08-26T14:46:18.817Z,28.80
2022-08-26T14:48:48.072Z,28.80
2022-08-26T14:51:16.005Z,28.80
2022-08-26T14:54:01.557Z,28.80
2022-08-26T14:56:31.705Z,28.90
2022-08-26T14:58:59.609Z,28.80
2022-08-26T15:01:30.855Z,28.90
2022-08-26T15:04:01.110Z,29.00
2022-08-26T15:06:29.468Z,29.10
2022-08-26T15:08:57.524Z,29.10
2022-08-26T15:11:25.794Z,29.20
2022-08-26T15:13:53.970Z,29.10
2022-08-26T15:16:22.588Z,29.00
2022-08-26T15:18:51.427Z,28.80
2022-08-26T15:21:21.290Z,28.40
2022-08-26T15:23:50.544Z,27.90
2022-08-26T15:26:18.886Z,27.50
2022-08-26T15:28:46.905Z,27.00
2022-08-26T15:31:14.846Z,26.60
2022-08-26T15:33:42.975Z,26.30
2022-08-26T15:36:11.595Z,26.10
2022-08-26T15:38:42.294Z,25.90
2022-08-26T15:41:11.031Z,25.70
2022-08-26T15:43:39.269Z,25.50
2022-08-26T15:46:11.839Z,25.30
2022-08-26T15:48:40.191Z,25.20
2022-08-26T15:51:08.796Z,25.20
2022-08-26T15:53:36.856Z,25.10
2022-08-26T15:56:06.553Z,25.00
2022-08-26T16:02:51.613Z,24.70
2022-08-26T16:05:19.793Z,24.50
2022-08-26T16:07:48.552Z,24.40
2022-08-26T16:10:18.519Z,24.20
2022-08-26T16:12:47.832Z,24.00
2022-08-26T16:15:15.790Z,23.90
2022-08-26T16:17:43.799Z,23.80
2022-08-26T16:20:11.953Z,23.70
2022-08-26T16:22:40.040Z,23.60
2022-08-26T16:25:08.365Z,23.30
2022-08-26T16:27:38.528Z,23.20
2022-08-26T16:30:10.173Z,23.10
2022-08-26T16:32:38.277Z,23.00
2022-08-26T16:35:07.097Z,22.90
2022-08-26T16:37:37.668Z,22.80
2022-08-26T16:40:09.830Z,22.70
2022-08-26T16:42:38.097Z,22.60
2022-08-26T16:45:08.571Z,22.50
2022-08-26T16:47:36.456Z,22.50
2022-08-26T16:50:04.990Z,22.40
2022-08-26T16:52:32.900Z,22.40
2022-08-26T16:55:00.866Z,22.30
2022-08-26T16:57:28.764Z,22.30
2022-08-26T16:59:56.675Z,22.30
2022-08-26T17:02:25.974Z,22.30
2022-08-26T17:04:54.689Z,22.30
2022-08-26T17:07:22.533Z,22.30
2022-08-26T17:09:50.525Z,22.40
2022-08-26T17:12:18.774Z,22.30
2022-08-26T17:14:48.523Z,22.30
2022-08-26T17:17:16.647Z,22.30
2022-08-26T17:19:47.031Z,22.30
2022-08-26T17:22:15.955Z,22.20
2022-08-26T17:24:43.980Z,22.20
2022-08-26T17:27:11.862Z,22.10
2022-08-26T17:29:39.809Z,22.10
2022-08-26T17:32:07.748Z,22.10
2022-08-26T17:34:35.660Z,22.10
2022-08-26T17:37:05.129Z,22.10
2022-08-26T17:39:33.020Z,22.10
2022-08-26T17:42:01.048Z,22.00
2022-08-26T17:44:29.515Z,22.00
2022-08-26T17:46:57.483Z,21.90
2022-08-26T17:49:25.429Z,21.90
2022-08-26T17:51:53.345Z,21.90
2022-08-26T17:54:22.634Z,21.80
2022-08-26T17:56:50.502Z,21.70
2022-08-26T17:59:18.517Z,21.60
2022-08-26T18:01:46.461Z,21.50
2022-08-26T18:04:14.926Z,21.40
2022-08-26T18:06:43.330Z,21.40
2022-08-26T18:09:11.538Z,21.30
2022-08-26T18:11:41.402Z,21.30
2022-08-26T18:14:09.310Z,21.30
2022-08-26T18:16:38.387Z,21.20
2022-08-26T18:19:07.095Z,21.30
2022-08-26T18:21:36.156Z,21.30
2022-08-26T18:24:04.678Z,21.20
2022-08-26T18:26:34.627Z,21.10
2022-08-26T18:29:05.031Z,21.10
2022-08-26T18:31:33.238Z,21.00
2022-08-26T18:34:03.000Z,20.90
2022-08-26T18:36:33.031Z,20.90
2022-08-26T18:39:01.145Z,20.80
2022-08-26T18:41:34.908Z,20.70
2022-08-26T18:44:04.670Z,20.70
2022-08-26T18:46:32.628Z,20.70
2022-08-26T18:49:00.560Z,20.70
2022-08-26T18:51:30.516Z,20.60
2022-08-26T18:53:59.365Z,20.50
2022-08-26T18:56:27.885Z,20.50
2022-08-26T18:58:55.781Z,20.50
2022-08-26T19:01:27.544Z,20.50
2022-08-26T19:03:56.459Z,20.50
2022-08-26T19:06:25.637Z,20.50
2022-08-26T19:08:53.892Z,20.50
2022-08-26T19:11:31.691Z,20.40
2022-08-26T19:14:07.417Z,20.40
2022-08-26T19:16:38.221Z,20.30
2022-08-26T19:19:07.173Z,20.30
2022-08-26T19:21:36.327Z,20.30
2022-08-26T19:24:06.091Z,20.30
2022-08-26T19:26:34.224Z,20.30
2022-08-26T19:29:02.417Z,20.30
2022-08-26T19:31:31.152Z,20.40
2022-08-26T19:34:00.363Z,20.40
2022-08-26T19:36:28.859Z,20.50
2022-08-26T19:38:56.883Z,20.60
2022-08-26T19:41:36.868Z,20.60
2022-08-26T19:44:09.452Z,20.60
2022-08-26T19:49:12.581Z,20.70
2022-08-26T19:51:40.466Z,20.60
2022-08-26T19:54:08.334Z,20.50
2022-08-26T19:56:36.484Z,20.50
2022-08-26T19:59:04.441Z,20.50
2022-08-26T20:01:32.372Z,20.50
2022-08-26T20:04:00.341Z,20.50
2022-08-26T20:06:29.556Z,20.40
2022-08-26T20:08:57.474Z,20.40
2022-08-26T20:11:25.733Z,20.40
2022-08-26T20:13:53.938Z,20.30
2022-08-26T20:16:21.975Z,20.30
2022-08-26T20:19:07.212Z,20.30
2022-08-26T20:21:39.112Z,20.30
2022-08-26T20:24:09.558Z,20.20
2022-08-26T20:26:43.108Z,20.20
2022-08-26T20:29:13.623Z,20.20
2022-08-26T20:31:41.842Z,20.10
2022-08-26T20:34:09.774Z,20.10
2022-08-26T20:36:40.181Z,20.00
2022-08-26T20:39:08.526Z,20.00
2022-08-26T20:41:36.507Z,20.00
2022-08-26T20:44:04.988Z,19.90
2022-08-26T20:46:47.894Z,19.90
2022-08-26T20:49:18.048Z,19.90
2022-08-26T20:51:51.928Z,19.80
2022-08-26T20:54:22.990Z,19.80
2022-08-26T20:56:53.163Z,19.80
2022-08-26T20:59:22.061Z,19.80
2022-08-26T21:01:50.732Z,19.80
2022-08-26T21:04:21.646Z,19.80
2022-08-26T21:06:52.163Z,19.80
2022-08-26T21:09:21.500Z,19.80
2022-08-26T21:11:49.722Z,19.80
2022-08-26T21:14:18.837Z,19.80
2022-08-26T21:16:47.665Z,19.80
2022-08-26T21:19:18.496Z,19.70
2022-08-26T21:21:47.512Z,19.70
2022-08-26T21:24:17.398Z,19.70
2022-08-26T21:26:45.800Z,19.60
2022-08-26T21:29:14.131Z,19.60
2022-08-26T21:31:46.437Z,19.60
2022-08-26T21:34:15.535Z,19.60
2022-08-26T21:36:43.528Z,19.50
2022-08-26T21:39:12.376Z,19.50
2022-08-26T21:41:43.096Z,19.40
2022-08-26T21:44:12.438Z,19.40
2022-08-26T21:46:40.441Z,19.40
2022-08-26T21:49:12.160Z,19.40
2022-08-26T21:51:43.821Z,19.30
2022-08-26T21:54:12.682Z,19.30
2022-08-26T21:56:45.073Z,19.30
2022-08-26T21:59:14.596Z,19.20
2022-08-26T22:01:42.564Z,19.20
2022-08-26T22:04:11.127Z,19.20
2022-08-26T22:06:43.234Z,19.20
2022-08-26T22:09:11.470Z,19.20
2022-08-26T22:11:43.174Z,19.20
2022-08-26T22:14:11.764Z,19.10
2022-08-26T22:16:39.797Z,19.10
2022-08-26T22:19:08.523Z,19.10
2022-08-26T22:21:42.142Z,19.10
2022-08-26T22:24:12.103Z,19.10
2022-08-26T22:26:40.072Z,19.10
2022-08-26T22:29:09.343Z,19.10
2022-08-26T22:31:38.787Z,19.10
2022-08-26T22:34:09.083Z,19.10
2022-08-26T22:36:43.074Z,19.10
2022-08-26T22:39:12.892Z,19.10
2022-08-26T22:41:41.185Z,19.10
2022-08-26T22:44:11.571Z,19.10
2022-08-26T22:46:40.265Z,19.20
2022-08-26T22:49:09.832Z,19.30
2022-08-26T22:51:37.881Z,19.30
2022-08-26T22:54:06.465Z,19.30
2022-08-26T22:56:34.721Z,19.40
2022-08-26T22:59:02.809Z,19.40
2022-08-26T23:01:37.844Z,19.40
2022-08-26T23:04:07.195Z,19.50
2022-08-26T23:06:37.115Z,19.50
2022-08-26T23:09:05.961Z,19.50
2022-08-26T23:11:34.303Z,19.60
2022-08-26T23:14:06.498Z,19.70
2022-08-26T23:17:12.170Z,19.70
2022-08-26T23:19:50.608Z,19.80
2022-08-26T23:22:18.523Z,19.80
2022-08-26T23:24:48.653Z,19.80
2022-08-26T23:27:16.617Z,19.80
2022-08-26T23:29:44.597Z,19.90
2022-08-26T23:32:13.838Z,19.90
2022-08-26T23:34:58.898Z,19.90
2022-08-26T23:37:29.595Z,19.90
2022-08-26T23:40:04.115Z,19.90
2022-08-26T23:42:48.638Z,19.90
2022-08-26T23:45:19.847Z,19.90
2022-08-26T23:47:57.329Z,19.90
2022-08-26T23:50:44.537Z,19.90
2022-08-26T23:53:19.242Z,20.00
2022-08-26T23:55:49.043Z,20.00
2022-08-26T23:58:18.036Z,19.90
